createdAt,value
2019-03-16T00:02:23.079Z,8.70
2019-03-16T00:04:51.124Z,8.70
2019-03-16T00:07:32.229Z,8.70
2019-03-16T00:09:47.195Z,8.60
2019-03-16T00:12:15.994Z,8.70
2019-03-16T00:14:44.795Z,8.70
2019-03-16T00:17:23.006Z,8.70
2019-03-16T00:19:41.608Z,8.60
2019-03-16T00:22:09.651Z,8.70
2019-03-16T00:24:37.688Z,8.60
2019-03-16T00:27:05.711Z,8.60
2019-03-16T00:29:33.742Z,8.60
2019-03-16T00:32:12.963Z,8.60
2019-03-16T00:34:30.587Z,8.60
2019-03-16T00:36:58.616Z,8.60
2019-03-16T00:39:26.660Z,8.60
2019-03-16T00:41:54.696Z,8.50
2019-03-16T00:44:22.740Z,8.60
2019-03-16T00:46:51.540Z,8.50
2019-03-16T00:49:20.342Z,8.50
2019-03-16T00:51:48.387Z,8.50
2019-03-16T00:54:16.398Z,8.60
2019-03-16T00:56:44.428Z,8.50
2019-03-16T00:59:13.219Z,8.50
2019-03-16T01:01:42.034Z,8.50
2019-03-16T01:04:10.073Z,8.50
2019-03-16T01:06:38.872Z,8.50
2019-03-16T01:09:06.918Z,8.50
2019-03-16T01:11:34.950Z,8.50
2019-03-16T01:14:02.985Z,8.50
2019-03-16T01:16:31.042Z,8.50
2019-03-16T01:18:59.835Z,8.50
2019-03-16T01:21:28.644Z,8.50
2019-03-16T01:23:56.680Z,8.50
2019-03-16T01:26:25.497Z,8.50
2019-03-16T01:28:53.545Z,8.50
2019-03-16T01:31:22.356Z,8.50
2019-03-16T01:33:51.124Z,8.50
2019-03-16T01:36:19.943Z,8.40
2019-03-16T01:38:47.980Z,8.40
2019-03-16T01:41:16.801Z,8.40
2019-03-16T01:43:44.806Z,8.40
2019-03-16T01:46:12.840Z,8.40
2019-03-16T01:48:40.885Z,8.40
2019-03-16T01:51:08.928Z,8.40
2019-03-16T01:53:36.962Z,8.40
2019-03-16T01:56:05.012Z,8.40
2019-03-16T01:58:33.034Z,8.40
2019-03-16T02:01:01.074Z,8.40
2019-03-16T02:03:29.117Z,8.40
2019-03-16T02:05:57.931Z,8.40
2019-03-16T02:08:25.972Z,8.40
2019-03-16T02:10:54.011Z,8.40
2019-03-16T02:13:22.811Z,8.40
2019-03-16T02:15:50.827Z,8.30
2019-03-16T02:18:18.856Z,8.40
2019-03-16T02:20:47.667Z,8.40
2019-03-16T02:23:15.700Z,8.30
2019-03-16T02:25:44.510Z,8.30
2019-03-16T02:28:12.539Z,8.30
2019-03-16T02:30:40.583Z,8.30
2019-03-16T02:33:13.311Z,8.30
2019-03-16T02:35:36.666Z,8.30
2019-03-16T02:38:05.474Z,8.40
2019-03-16T02:40:33.525Z,8.40
2019-03-16T02:43:02.335Z,8.30
2019-03-16T02:45:30.376Z,8.30
2019-03-16T02:47:59.299Z,8.40
2019-03-16T02:50:27.963Z,8.30
2019-03-16T02:52:56.771Z,8.30
2019-03-16T02:55:24.817Z,8.30
2019-03-16T02:57:53.629Z,8.30
2019-03-16T03:00:21.677Z,8.30
2019-03-16T03:02:50.474Z,8.30
2019-03-16T03:05:18.496Z,8.30
2019-03-16T03:07:46.532Z,8.30
2019-03-16T03:10:14.602Z,8.30
2019-03-16T03:12:43.370Z,8.30
2019-03-16T03:15:12.177Z,8.30
2019-03-16T03:17:40.216Z,8.30
2019-03-16T03:20:08.256Z,8.30
2019-03-16T03:22:36.262Z,8.30
2019-03-16T03:25:05.073Z,8.20
2019-03-16T03:27:33.100Z,8.20
2019-03-16T03:30:01.986Z,8.30
2019-03-16T03:32:30.712Z,8.30
2019-03-16T03:34:58.760Z,8.30
2019-03-16T03:37:27.559Z,8.20
2019-03-16T03:39:55.591Z,8.20
2019-03-16T03:42:23.642Z,8.20
2019-03-16T03:44:51.639Z,8.20
2019-03-16T03:47:19.690Z,8.20
2019-03-16T03:49:47.720Z,8.20
2019-03-16T03:52:15.759Z,8.20
2019-03-16T03:54:44.575Z,8.20
2019-03-16T03:57:13.361Z,8.20
2019-03-16T03:59:41.403Z,8.20
2019-03-16T04:02:09.404Z,8.20
2019-03-16T04:04:37.445Z,8.10
2019-03-16T04:07:06.248Z,8.20
2019-03-16T04:09:34.295Z,8.20
2019-03-16T04:12:02.335Z,8.20
2019-03-16T04:14:30.361Z,8.20
2019-03-16T04:16:58.397Z,8.20
2019-03-16T04:19:26.800Z,8.20
2019-03-16T04:21:55.611Z,8.10
2019-03-16T04:24:23.641Z,8.10
2019-03-16T04:26:52.471Z,8.10
2019-03-16T04:29:20.475Z,8.10
2019-03-16T04:31:48.495Z,8.10
2019-03-16T04:34:28.539Z,8.10
2019-03-16T04:36:44.551Z,8.10
2019-03-16T04:39:12.591Z,8.10
2019-03-16T04:41:41.399Z,8.10
2019-03-16T04:44:09.424Z,8.10
2019-03-16T04:46:37.463Z,8.10
2019-03-16T04:49:05.483Z,8.20
2019-03-16T04:51:34.291Z,8.20
2019-03-16T04:54:02.336Z,8.10
2019-03-16T04:56:31.145Z,8.20
2019-03-16T04:58:59.929Z,8.20
2019-03-16T05:01:27.980Z,8.20
2019-03-16T05:03:56.017Z,8.20
2019-03-16T05:06:24.033Z,8.20
2019-03-16T05:08:52.835Z,8.20
2019-03-16T05:11:20.880Z,8.20
2019-03-16T05:13:49.680Z,8.30
2019-03-16T05:16:18.488Z,8.20
2019-03-16T05:18:46.519Z,8.20
2019-03-16T05:21:15.326Z,8.30
2019-03-16T05:23:44.120Z,8.30
2019-03-16T05:26:12.173Z,8.30
2019-03-16T05:28:40.967Z,8.30
2019-03-16T05:31:09.773Z,8.30
2019-03-16T05:33:37.804Z,8.30
2019-03-16T05:36:05.839Z,8.30
2019-03-16T05:38:33.984Z,8.30
2019-03-16T05:41:02.015Z,8.30
2019-03-16T05:43:30.048Z,8.30
2019-03-16T05:45:58.101Z,8.40
2019-03-16T05:48:26.135Z,8.50
2019-03-16T05:50:57.271Z,8.50
2019-03-16T05:53:22.224Z,8.50
2019-03-16T05:55:50.259Z,8.50
2019-03-16T05:58:19.060Z,8.50
2019-03-16T06:00:47.084Z,8.50
2019-03-16T06:03:15.116Z,8.50
2019-03-16T06:05:43.159Z,8.50
2019-03-16T06:08:11.172Z,8.50
2019-03-16T06:10:39.241Z,8.50
2019-03-16T06:13:07.288Z,8.50
2019-03-16T06:15:35.348Z,8.60
2019-03-16T06:18:03.361Z,8.50
2019-03-16T06:20:31.395Z,8.50
2019-03-16T06:22:59.407Z,8.50
2019-03-16T06:25:27.441Z,8.50
2019-03-16T06:27:56.244Z,8.60
2019-03-16T06:30:24.303Z,8.60
2019-03-16T06:32:53.116Z,8.60
2019-03-16T06:35:24.924Z,8.60
2019-03-16T06:37:49.192Z,8.50
2019-03-16T06:40:17.226Z,8.60
2019-03-16T06:42:45.255Z,8.60
2019-03-16T06:45:13.283Z,8.50
2019-03-16T06:47:41.877Z,8.60
2019-03-16T06:50:11.318Z,8.60
2019-03-16T06:52:39.359Z,8.60
2019-03-16T06:55:07.367Z,8.70
2019-03-16T06:57:36.171Z,8.70
2019-03-16T07:00:05.884Z,8.70
2019-03-16T07:02:34.024Z,8.70
2019-03-16T07:05:02.067Z,8.80
2019-03-16T07:07:30.104Z,8.80
2019-03-16T07:09:58.135Z,8.80
2019-03-16T07:12:26.171Z,8.90
2019-03-16T07:14:54.200Z,8.90
2019-03-16T07:17:23.005Z,9.00
2019-03-16T07:19:51.036Z,9.00
2019-03-16T07:22:19.080Z,9.00
2019-03-16T07:24:47.080Z,9.00
2019-03-16T07:27:25.565Z,9.10
2019-03-16T07:29:43.899Z,9.00
2019-03-16T07:32:11.948Z,9.10
2019-03-16T07:34:40.059Z,9.10
2019-03-16T07:37:07.999Z,9.10
2019-03-16T07:39:36.036Z,9.10
2019-03-16T07:42:04.844Z,9.30
2019-03-16T07:44:32.885Z,9.30
2019-03-16T07:47:01.681Z,9.40
2019-03-16T07:49:30.484Z,9.50
2019-03-16T07:51:59.275Z,9.70
2019-03-16T07:54:27.336Z,9.70
2019-03-16T07:56:57.554Z,9.80
2019-03-16T07:59:26.042Z,9.80
2019-03-16T08:01:54.852Z,10.30
2019-03-16T08:04:22.898Z,10.20
2019-03-16T08:06:51.688Z,10.10
2019-03-16T08:09:19.900Z,10.10
2019-03-16T08:11:47.797Z,10.00
2019-03-16T08:14:16.611Z,9.90
2019-03-16T08:16:44.652Z,9.90
2019-03-16T08:19:12.676Z,9.80
2019-03-16T08:21:40.723Z,9.80
2019-03-16T08:24:08.765Z,9.80
2019-03-16T08:26:37.585Z,9.90
2019-03-16T08:29:05.621Z,9.80
2019-03-16T08:31:33.680Z,9.80
2019-03-16T08:34:01.755Z,9.90
2019-03-16T08:36:29.837Z,10.10
2019-03-16T08:38:58.670Z,10.30
2019-03-16T08:41:26.732Z,10.30
2019-03-16T08:43:54.784Z,10.40
2019-03-16T08:46:22.848Z,10.40
2019-03-16T08:48:51.678Z,10.50
2019-03-16T08:51:19.739Z,10.50
2019-03-16T08:53:47.800Z,10.60
2019-03-16T08:56:15.842Z,10.80
2019-03-16T08:58:45.137Z,11.10
2019-03-16T09:01:13.177Z,11.00
2019-03-16T09:03:43.891Z,11.20
2019-03-16T09:06:10.079Z,11.20
2019-03-16T09:08:38.112Z,11.10
2019-03-16T09:11:06.170Z,11.00
2019-03-16T09:13:34.207Z,11.00
2019-03-16T09:16:02.269Z,10.90
2019-03-16T09:18:30.326Z,11.00
2019-03-16T09:20:59.133Z,11.30
2019-03-16T09:23:27.205Z,11.20
2019-03-16T09:25:55.243Z,11.40
2019-03-16T09:28:25.295Z,11.70
2019-03-16T09:30:56.306Z,11.70
2019-03-16T09:33:21.535Z,11.40
2019-03-16T09:35:50.228Z,11.50
2019-03-16T09:38:18.371Z,11.50
2019-03-16T09:40:47.172Z,11.60
2019-03-16T09:43:15.215Z,11.60
2019-03-16T09:45:43.237Z,11.60
2019-03-16T09:48:11.283Z,11.50
2019-03-16T09:50:39.328Z,11.70
2019-03-16T09:53:08.148Z,11.80
2019-03-16T09:55:36.939Z,11.70
2019-03-16T09:58:04.997Z,11.70
2019-03-16T10:00:33.777Z,11.70
2019-03-16T10:03:01.840Z,11.60
2019-03-16T10:05:30.639Z,11.80
2019-03-16T10:07:58.687Z,11.80
2019-03-16T10:10:27.484Z,12.40
2019-03-16T10:12:55.504Z,12.40
2019-03-16T10:15:23.541Z,12.70
2019-03-16T10:17:52.332Z,12.60
2019-03-16T10:20:20.392Z,12.50
2019-03-16T10:22:48.438Z,13.10
2019-03-16T10:25:16.476Z,13.30
2019-03-16T10:27:44.530Z,13.70
2019-03-16T10:30:13.365Z,14.30
2019-03-16T10:32:41.409Z,14.50
2019-03-16T10:35:09.452Z,14.60
2019-03-16T10:37:37.500Z,14.20
2019-03-16T10:40:05.556Z,14.30
2019-03-16T10:42:34.368Z,12.90
2019-03-16T10:45:03.159Z,13.00
2019-03-16T10:47:31.212Z,12.90
2019-03-16T10:50:00.032Z,12.40
2019-03-16T10:52:28.088Z,12.30
2019-03-16T10:54:56.111Z,12.50
2019-03-16T10:57:24.182Z,12.90
2019-03-16T10:59:52.212Z,13.10
2019-03-16T11:02:20.268Z,12.90
2019-03-16T11:04:48.311Z,12.80
2019-03-16T11:07:17.120Z,12.60
2019-03-16T11:09:45.161Z,12.70
2019-03-16T11:12:13.974Z,13.40
2019-03-16T11:14:42.016Z,13.40
2019-03-16T11:17:10.068Z,13.60
2019-03-16T11:19:38.107Z,13.50
2019-03-16T11:22:06.132Z,13.10
2019-03-16T11:24:34.961Z,12.50
2019-03-16T11:27:02.999Z,12.50
2019-03-16T11:29:31.803Z,12.30
2019-03-16T11:31:59.849Z,12.30
2019-03-16T11:34:28.659Z,11.80
2019-03-16T11:36:56.702Z,11.80
2019-03-16T11:39:24.722Z,11.70
2019-03-16T11:41:52.765Z,11.60
2019-03-16T11:44:21.556Z,11.90
2019-03-16T11:46:49.620Z,11.90
2019-03-16T11:49:17.654Z,12.00
2019-03-16T11:51:45.685Z,12.10
2019-03-16T11:54:13.727Z,12.90
2019-03-16T11:56:42.520Z,13.10
2019-03-16T11:59:21.190Z,13.10
2019-03-16T12:01:44.690Z,12.80
2019-03-16T12:04:12.721Z,12.50
2019-03-16T12:06:40.752Z,12.60
2019-03-16T12:09:09.539Z,12.90
2019-03-16T12:11:37.589Z,12.90
2019-03-16T12:14:06.383Z,13.00
2019-03-16T12:16:34.419Z,13.00
2019-03-16T12:19:02.459Z,12.80
2019-03-16T12:21:30.502Z,12.80
2019-03-16T12:23:58.551Z,12.60
2019-03-16T12:26:27.332Z,13.00
2019-03-16T12:28:56.156Z,13.20
2019-03-16T12:31:24.186Z,13.20
2019-03-16T12:33:53.008Z,12.90
2019-03-16T12:36:21.028Z,12.90
2019-03-16T12:38:49.068Z,12.80
2019-03-16T12:41:17.112Z,12.60
2019-03-16T12:43:45.154Z,12.50
2019-03-16T12:46:13.962Z,12.70
2019-03-16T12:48:42.751Z,12.70
2019-03-16T12:51:10.787Z,12.70
2019-03-16T12:53:39.646Z,13.00
2019-03-16T12:56:06.882Z,13.00
2019-03-16T12:58:34.919Z,13.00
2019-03-16T13:01:02.974Z,13.10
2019-03-16T13:03:31.003Z,13.40
2019-03-16T13:05:59.043Z,13.70
2019-03-16T13:08:27.082Z,13.90
2019-03-16T13:10:55.883Z,13.60
2019-03-16T13:13:24.705Z,13.50
2019-03-16T13:15:52.730Z,13.50
2019-03-16T13:18:21.552Z,13.70
2019-03-16T13:20:49.586Z,13.70
2019-03-16T13:23:17.662Z,13.70
2019-03-16T13:25:45.640Z,13.90
2019-03-16T13:28:13.664Z,13.90
2019-03-16T13:30:41.702Z,14.30
2019-03-16T13:33:10.483Z,14.40
2019-03-16T13:35:38.527Z,14.30
2019-03-16T13:38:07.359Z,14.40
2019-03-16T13:40:35.367Z,14.30
2019-03-16T13:43:03.407Z,14.40
2019-03-16T13:45:31.443Z,14.40
2019-03-16T13:47:59.500Z,14.10
2019-03-16T13:50:28.303Z,14.50
2019-03-16T13:52:57.091Z,15.10
2019-03-16T13:55:25.891Z,15.20
2019-03-16T13:57:53.937Z,15.20
2019-03-16T14:00:23.352Z,14.50
2019-03-16T14:02:51.314Z,14.50
2019-03-16T14:05:19.358Z,14.50
2019-03-16T14:07:48.169Z,14.50
2019-03-16T14:10:17.103Z,14.50
2019-03-16T14:12:45.139Z,14.50
2019-03-16T14:15:13.183Z,14.50
2019-03-16T14:29:34.279Z,17.80
2019-03-16T14:32:02.319Z,17.30
2019-03-16T14:34:30.462Z,16.70
2019-03-16T14:36:58.491Z,16.60
2019-03-16T14:40:20.495Z,16.40
2019-03-16T14:42:48.476Z,18.80
2019-03-16T14:45:17.296Z,20.00
2019-03-16T14:47:45.326Z,19.90
2019-03-16T14:50:18.246Z,19.90
2019-03-16T14:53:44.372Z,17.80
2019-03-16T14:56:12.407Z,17.80
2019-03-16T14:58:40.465Z,16.70
2019-03-16T15:01:08.596Z,16.20
2019-03-16T15:03:36.659Z,16.00
2019-03-16T15:06:04.701Z,15.90
2019-03-16T15:08:32.807Z,15.40
2019-03-16T15:11:00.847Z,15.50
2019-03-16T15:13:28.879Z,15.10
2019-03-16T15:15:56.918Z,15.20
2019-03-16T15:18:24.961Z,15.50
2019-03-16T15:23:53.659Z,15.20
2019-03-16T15:26:21.759Z,15.20
2019-03-16T15:28:54.881Z,15.10
2019-03-16T15:31:17.904Z,14.70
2019-03-16T15:33:45.961Z,14.60
2019-03-16T15:36:14.735Z,15.10
2019-03-16T15:38:43.639Z,15.10
2019-03-16T15:41:11.725Z,15.10
2019-03-16T15:43:39.787Z,14.90
2019-03-16T15:46:07.837Z,14.60
2019-03-16T15:48:36.655Z,14.50
2019-03-16T15:51:04.702Z,14.50
2019-03-16T15:53:32.714Z,14.50
2019-03-16T15:56:00.772Z,14.50
2019-03-16T15:58:28.870Z,14.50
2019-03-16T16:01:03.467Z,14.40
2019-03-16T16:03:24.967Z,14.30
2019-03-16T16:05:53.772Z,14.30
2019-03-16T16:08:21.823Z,14.20
2019-03-16T16:11:00.522Z,14.20
2019-03-16T16:13:18.769Z,14.10
2019-03-16T16:15:47.583Z,14.10
2019-03-16T16:18:15.631Z,14.10
2019-03-16T16:20:43.867Z,14.10
2019-03-16T16:23:11.942Z,14.10
2019-03-16T16:25:40.084Z,14.10
2019-03-16T16:28:08.100Z,14.10
2019-03-16T16:30:36.149Z,14.10
2019-03-16T16:33:04.174Z,14.10
2019-03-16T16:35:33.018Z,13.90
2019-03-16T16:38:01.139Z,13.90
2019-03-16T16:40:29.202Z,13.90
2019-03-16T16:42:58.148Z,13.80
2019-03-16T16:45:26.191Z,13.70
2019-03-16T16:47:54.325Z,13.80
2019-03-16T16:50:22.378Z,13.80
2019-03-16T16:52:51.183Z,13.60
2019-03-16T16:55:19.230Z,13.60
2019-03-16T16:57:48.045Z,13.60
2019-03-16T17:00:16.839Z,13.50
2019-03-16T17:02:44.913Z,13.50
2019-03-16T17:05:12.991Z,13.40
2019-03-16T17:07:41.059Z,13.40
2019-03-16T17:10:10.915Z,13.30
2019-03-16T17:12:40.462Z,13.20
2019-03-16T17:15:08.539Z,13.20
2019-03-16T17:17:36.609Z,13.20
2019-03-16T17:20:04.672Z,13.10
2019-03-16T17:22:32.705Z,13.10
2019-03-16T17:25:00.815Z,13.00
2019-03-16T17:27:28.855Z,13.00
2019-03-16T17:29:56.875Z,12.80
2019-03-16T17:32:24.918Z,12.80
2019-03-16T17:34:53.703Z,12.70
2019-03-16T17:37:21.754Z,12.70
2019-03-16T17:39:50.644Z,12.60
2019-03-16T17:42:19.446Z,12.60
2019-03-16T17:44:50.903Z,12.50
2019-03-16T17:47:16.388Z,12.50
2019-03-16T17:49:45.207Z,12.30
2019-03-16T17:52:13.288Z,12.30
2019-03-16T17:54:41.363Z,12.20
2019-03-16T17:57:09.391Z,12.20
2019-03-16T17:59:38.223Z,12.00
2019-03-16T18:02:07.039Z,12.00
2019-03-16T18:04:35.162Z,12.00
2019-03-16T18:07:03.201Z,11.90
2019-03-16T18:09:31.315Z,11.80
2019-03-16T18:11:59.361Z,11.80
2019-03-16T18:14:28.273Z,11.70
2019-03-16T18:16:56.310Z,11.70
2019-03-16T18:19:25.135Z,11.60
2019-03-16T18:21:53.191Z,11.60
2019-03-16T18:24:21.312Z,11.60
2019-03-16T18:26:50.048Z,11.50
2019-03-16T18:29:18.835Z,11.50
2019-03-16T18:31:46.891Z,11.50
2019-03-16T18:34:16.511Z,11.30
2019-03-16T18:36:44.579Z,11.30
2019-03-16T18:39:12.669Z,11.30
2019-03-16T18:41:40.728Z,11.30
2019-03-16T18:44:08.771Z,11.20
2019-03-16T18:46:37.587Z,11.20
2019-03-16T18:49:05.631Z,11.20
2019-03-16T18:51:34.451Z,11.10
2019-03-16T18:54:02.495Z,11.10
2019-03-16T18:56:31.319Z,11.10
2019-03-16T18:58:59.357Z,11.10
2019-03-16T19:01:28.176Z,11.10
2019-03-16T19:03:56.232Z,11.10
2019-03-16T19:06:24.283Z,11.10
2019-03-16T19:08:53.192Z,11.10
2019-03-16T19:11:21.268Z,11.00
2019-03-16T19:13:49.303Z,11.10
2019-03-16T19:16:18.111Z,11.10
2019-03-16T19:18:46.142Z,11.10
2019-03-16T19:21:14.209Z,11.10
2019-03-16T19:23:42.329Z,11.00
2019-03-16T19:26:10.375Z,11.00
2019-03-16T19:28:38.395Z,11.00
2019-03-16T19:31:06.640Z,11.00
2019-03-16T19:33:34.687Z,11.00
2019-03-16T19:36:03.495Z,10.90
2019-03-16T19:38:31.589Z,10.90
2019-03-16T19:40:59.634Z,11.00
2019-03-16T19:43:27.672Z,10.90
2019-03-16T19:45:55.704Z,10.90
2019-03-16T19:48:23.750Z,10.80
2019-03-16T19:50:51.828Z,10.90
2019-03-16T19:53:19.863Z,10.80
2019-03-16T19:55:48.699Z,10.80
2019-03-16T19:58:16.753Z,10.80
2019-03-16T20:00:44.802Z,10.80
2019-03-16T20:03:13.268Z,10.80
2019-03-16T20:05:41.368Z,10.90
2019-03-16T20:08:09.407Z,11.20
2019-03-16T20:10:38.363Z,11.10
2019-03-16T20:13:06.276Z,11.00
2019-03-16T20:15:35.088Z,10.90
2019-03-16T20:18:03.133Z,10.90
2019-03-16T20:20:32.044Z,10.80
2019-03-16T20:23:01.656Z,10.80
2019-03-16T20:25:29.699Z,10.80
2019-03-16T20:27:58.514Z,10.80
2019-03-16T20:30:27.240Z,10.80
2019-03-16T20:33:03.881Z,10.80
2019-03-16T20:35:23.516Z,10.80
2019-03-16T20:37:52.323Z,10.80
2019-03-16T20:40:20.372Z,10.80
2019-03-16T20:42:49.185Z,10.90
2019-03-16T20:45:17.459Z,10.80
2019-03-16T20:47:46.035Z,10.80
2019-03-16T20:50:14.922Z,10.80
2019-03-16T20:52:42.979Z,10.70
2019-03-16T20:55:11.784Z,10.70
2019-03-16T20:57:39.878Z,10.60
2019-03-16T21:00:12.291Z,10.60
2019-03-16T21:02:40.345Z,10.50
2019-03-16T21:05:08.385Z,10.30
2019-03-16T21:07:37.168Z,10.00
2019-03-16T21:10:05.208Z,10.00
2019-03-16T21:12:33.219Z,9.90
2019-03-16T21:15:01.257Z,9.90
2019-03-16T21:17:30.079Z,9.80
2019-03-16T21:19:58.106Z,9.70
2019-03-16T21:22:34.927Z,9.60
2019-03-16T21:24:54.232Z,9.60
2019-03-16T21:27:22.439Z,9.50
2019-03-16T21:29:50.519Z,9.50
2019-03-16T21:32:18.560Z,9.40
2019-03-16T21:34:47.380Z,9.40
2019-03-16T21:37:15.434Z,9.40
2019-03-16T21:39:43.467Z,9.40
2019-03-16T21:42:11.496Z,9.40
2019-03-16T21:44:39.555Z,9.40
2019-03-16T21:47:07.627Z,9.40
2019-03-16T21:49:36.837Z,9.30
2019-03-16T21:52:04.887Z,9.30
2019-03-16T21:54:32.919Z,9.30
2019-03-16T21:57:01.006Z,9.20
2019-03-16T21:59:29.098Z,9.10
2019-03-16T22:01:57.158Z,9.10
2019-03-16T22:04:25.168Z,9.10
2019-03-16T22:06:53.223Z,9.10
2019-03-16T22:09:21.263Z,9.10
2019-03-16T22:11:49.355Z,8.90
2019-03-16T22:14:17.419Z,8.90
2019-03-16T22:16:45.476Z,8.90
2019-03-16T22:19:14.285Z,8.70
2019-03-16T22:21:42.324Z,8.70
2019-03-16T22:24:11.956Z,8.60
2019-03-16T22:26:40.008Z,8.60
2019-03-16T22:29:08.108Z,8.70
2019-03-16T22:31:36.223Z,8.70
2019-03-16T22:34:04.340Z,8.80
2019-03-16T22:36:33.110Z,8.70
2019-03-16T22:39:02.014Z,8.70
2019-03-16T22:41:30.798Z,8.60
2019-03-16T22:43:58.878Z,8.60
2019-03-16T22:46:27.643Z,8.40
2019-03-16T22:48:56.463Z,8.30
2019-03-16T22:51:24.488Z,8.30
2019-03-16T22:53:53.411Z,8.20
2019-03-16T22:56:22.179Z,8.20
2019-03-16T22:58:51.098Z,8.10
2019-03-16T23:01:19.270Z,8.10
2019-03-16T23:03:47.312Z,8.20
2019-03-16T23:06:16.116Z,8.40
2019-03-16T23:08:44.159Z,8.40
2019-03-16T23:11:12.962Z,8.40
2019-03-16T23:13:41.863Z,8.50
2019-03-16T23:16:09.947Z,8.50
2019-03-16T23:18:38.816Z,8.60
2019-03-16T23:21:06.895Z,8.60
2019-03-16T23:23:34.946Z,8.60
2019-03-16T23:26:03.742Z,8.80
2019-03-16T23:28:31.867Z,8.80
2019-03-16T23:30:59.824Z,8.70
2019-03-16T23:33:27.962Z,8.80
2019-03-16T23:35:56.035Z,8.80
2019-03-16T23:38:24.820Z,8.80
2019-03-16T23:40:52.859Z,8.80
2019-03-16T23:43:20.963Z,8.80
2019-03-16T23:45:49.000Z,8.70
2019-03-16T23:48:17.103Z,8.70
2019-03-16T23:50:45.154Z,8.70
2019-03-16T23:53:13.197Z,8.70
2019-03-16T23:55:41.231Z,8.80
2019-03-16T23:58:09.257Z,8.70
